Lantana, FL (33462)

1:07 PM EST on November 24, 2014 (GMT -0500)
TWO GEMS Wind & Weather | Change Station
CLOSE
Current Station
Personal Weather Station
Location: Lake Worth, FL
Elevation: 14 ft
Nearby Weather Stations

Elev 14 ft 26.59 °N, 80.11 °W | Updated 59 seconds ago

Mostly Cloudy
Mostly Cloudy
86.4 °F
Feels Like 98 °F
N
2.0
Wind Variable Wind from SSW
Gusts 0.0 mph

Today
High -- | Low -- °F
--% Chance of Precip.
Yesterday
High -- | Low -- °F
Precip. -- in
6:46 AM 5:27 PM
Waxing Crescent, 6% visible
Pressure 29.95 in
Visibility 10.0 miles
Clouds Scattered Clouds 2000 ft
Scattered Clouds 3500 ft
Scattered Clouds 4500 ft
Heat Index 98 °F
Dew Point 78 °F
Humidity 75%
Rainfall 0.02 in
Snow Depth Not available.
UV 5 out of 12
Pollen 4.00 out of 12
Air Quality Not available.
Flu Activity Not available.
METAR KPBI 241753Z 14015KT 10SM SCT020 SCT035 SCT045 29/24 A2995 RMK AO2 SLP141 T02940244 10306 20250 58021

More Conditions Fewer Conditions

Pressure 29.95 in
Visibility 10.0 miles
Clouds Scattered Clouds 2000 ft
Scattered Clouds 3500 ft
Scattered Clouds 4500 ft
Heat Index 98 °F
Dew Point 78 °F
Humidity 75%
Rainfall 0.02 in
Snow Depth Not available.
UV 5 out of 12
Pollen 4.00 out of 12
Air Quality Not available.
Flu Activity Not available.
METAR KPBI 241753Z 14015KT 10SM SCT020 SCT035 SCT045 29/24 A2995 RMK AO2 SLP141 T02940244 10306 20250 58021

More Conditions Fewer Conditions

10-Day Weather Forecast

Almanac

Astronomy

Nov. 24, 2014 Rise Set
Actual Time
Civil Twilight
Nautical Twilight
Astronomical Twilight
Moon
Length of Visible Light
Length of Day
Tomorrow will be .
, % of the Moon is Illuminated

Today's Extremes

State Highs State Lows

Community

WunderPhotos

Upload Photos

1,773,381 photos uploaded!

WunderBlogs® & News

Nearby

Air Quality

  Air Quality AQ Index Pollutant
Not available.

Snow Depth

Station Depth Elevation

Earthquake Activity

City Distance Mag. Time & Date
Minimum magnitude displayed is 2.5.

Coastal Water Temperatures

Place Temperature

Nearby Weather Stations